Terminal Aerodrome Forecast
Issued by NWS Mt. Holly, NJ

Home | Current Version | Previous Version | Text Only | Print | Product List | Glossary On
Versions: 1 2 3 4 5 6 7 8 9 10 11 12 13
000
FTUS41 KPHI 291131
TAFILG
TAF
KILG 291131Z 2912/3012 19007KT P6SM BKN200
     FM292300 17007KT P6SM -SHRA FEW030 OVC060
      TEMPO 3001/3005 4SM SHRA
     FM300900 05005KT 2SM +RA BR OVC009=

USA.gov is the U.S. government's official web portal to all federal, state and local government web resources and services.